createdAt,value
2022-08-24T00:02:07.949Z,56.90
2022-08-24T00:04:39.887Z,56.80
2022-08-24T00:07:13.819Z,56.60
2022-08-24T00:09:54.129Z,57.20
2022-08-24T00:12:20.948Z,57.20
2022-08-24T00:14:47.844Z,58.40
2022-08-24T00:17:17.148Z,58.20
2022-08-24T00:19:44.162Z,58.20
2022-08-24T00:22:10.854Z,58.30
2022-08-24T00:24:37.947Z,58.30
2022-08-24T00:27:06.531Z,58.50
2022-08-24T00:29:34.268Z,58.80
2022-08-24T00:32:01.196Z,59.00
2022-08-24T00:34:29.843Z,59.10
2022-08-24T00:36:56.658Z,59.20
2022-08-24T00:39:23.579Z,59.30
2022-08-24T00:41:51.596Z,59.20
2022-08-24T00:44:19.975Z,59.20
2022-08-24T00:47:01.718Z,59.40
2022-08-24T00:49:42.058Z,59.70
2022-08-24T00:52:19.737Z,59.80
2022-08-24T00:54:51.086Z,59.80
2022-08-24T00:57:20.626Z,59.20
2022-08-24T00:59:54.841Z,59.10
2022-08-24T01:02:26.304Z,59.20
2022-08-24T01:04:56.150Z,59.10
2022-08-24T01:07:25.538Z,58.70
2022-08-24T01:09:54.108Z,58.70
2022-08-24T01:12:22.282Z,59.00
2022-08-24T01:14:49.310Z,59.20
2022-08-24T01:17:39.004Z,59.30
2022-08-24T01:20:09.016Z,59.10
2022-08-24T01:22:45.461Z,59.00
2022-08-24T01:25:12.285Z,59.50
2022-08-24T01:27:41.428Z,59.30
2022-08-24T01:30:11.236Z,59.10
2022-08-24T01:32:39.245Z,59.00
2022-08-24T01:35:06.566Z,59.00
2022-08-24T01:37:34.317Z,58.90
2022-08-24T01:40:06.476Z,58.90
2022-08-24T01:42:34.884Z,58.80
2022-08-24T01:45:02.167Z,58.60
2022-08-24T01:47:29.332Z,58.50
2022-08-24T01:49:57.432Z,58.70
2022-08-24T01:52:29.720Z,58.50
2022-08-24T01:55:02.102Z,59.00
2022-08-24T01:57:30.132Z,59.20
2022-08-24T01:59:57.191Z,59.30
2022-08-24T02:02:30.943Z,59.40
2022-08-24T02:04:58.071Z,59.90
2022-08-24T02:07:26.255Z,59.70
2022-08-24T02:09:53.139Z,59.80
2022-08-24T02:12:20.914Z,59.10
2022-08-24T02:14:48.011Z,59.10
2022-08-24T02:17:14.995Z,59.30
2022-08-24T02:19:41.846Z,59.10
2022-08-24T02:22:08.651Z,59.50
2022-08-24T02:24:38.375Z,59.10
2022-08-24T02:27:05.657Z,58.80
2022-08-24T02:29:33.575Z,58.70
2022-08-24T02:32:00.272Z,58.80
2022-08-24T02:34:27.008Z,58.70
2022-08-24T02:36:53.771Z,58.60
2022-08-24T02:39:21.011Z,58.50
2022-08-24T02:41:50.903Z,58.60
2022-08-24T02:44:18.475Z,58.50
2022-08-24T02:46:45.230Z,58.50
2022-08-24T02:49:12.547Z,58.60
2022-08-24T02:51:45.395Z,58.60
2022-08-24T02:54:18.044Z,58.70
2022-08-24T02:56:46.390Z,58.70
2022-08-24T02:59:13.936Z,58.80
2022-08-24T03:01:41.064Z,58.80
2022-08-24T03:04:08.198Z,58.80
2022-08-24T03:06:34.879Z,59.00
2022-08-24T03:09:02.147Z,58.90
2022-08-24T03:11:29.356Z,59.00
2022-08-24T03:13:58.286Z,58.90
2022-08-24T03:16:27.258Z,59.10
2022-08-24T03:18:55.086Z,59.20
2022-08-24T03:21:22.746Z,59.20
2022-08-24T03:23:49.865Z,59.40
2022-08-24T03:26:16.630Z,59.80
2022-08-24T03:28:45.113Z,60.00
2022-08-24T03:31:13.122Z,60.30
2022-08-24T03:33:40.607Z,60.40
2022-08-24T03:36:12.355Z,60.50
2022-08-24T03:38:41.376Z,60.80
2022-08-24T03:41:08.447Z,61.00
2022-08-24T03:43:48.428Z,61.30
2022-08-24T03:46:21.351Z,61.20
2022-08-24T03:48:49.765Z,61.50
2022-08-24T03:51:23.108Z,61.60
2022-08-24T03:53:51.505Z,61.70
2022-08-24T03:56:19.981Z,61.80
2022-08-24T03:58:47.637Z,61.80
2022-08-24T04:01:15.401Z,62.20
2022-08-24T04:03:44.111Z,62.20
2022-08-24T04:06:13.546Z,62.20
2022-08-24T04:08:41.718Z,62.30
2022-08-24T04:11:17.816Z,62.50
2022-08-24T04:13:46.609Z,62.90
2022-08-24T04:16:17.166Z,62.80
2022-08-24T04:18:45.454Z,63.00
2022-08-24T04:21:30.913Z,63.10
2022-08-24T04:23:58.966Z,63.80
2022-08-24T04:26:45.629Z,63.30
2022-08-24T04:29:17.400Z,63.50
2022-08-24T04:31:49.698Z,63.60
2022-08-24T04:34:18.245Z,63.40
2022-08-24T04:36:46.041Z,63.60
2022-08-24T04:39:14.090Z,63.60
2022-08-24T04:41:53.401Z,63.70
2022-08-24T04:44:21.303Z,63.80
2022-08-24T04:46:48.047Z,63.70
2022-08-24T04:49:14.723Z,63.80
2022-08-24T04:51:41.390Z,63.70
2022-08-24T04:54:08.936Z,63.50
2022-08-24T04:56:36.549Z,63.40
2022-08-24T04:59:05.437Z,63.60
2022-08-24T05:01:33.654Z,63.70
2022-08-24T05:04:03.685Z,63.80
2022-08-24T05:06:32.634Z,63.70
2022-08-24T05:09:00.428Z,64.00
2022-08-24T05:11:28.958Z,64.10
2022-08-24T05:13:57.647Z,64.40
2022-08-24T05:16:25.908Z,64.40
2022-08-24T05:18:54.570Z,64.40
2022-08-24T05:21:23.318Z,64.60
2022-08-24T05:23:50.998Z,64.80
2022-08-24T05:26:24.238Z,64.80
2022-08-24T05:28:55.187Z,65.00
2022-08-24T05:31:24.555Z,65.20
2022-08-24T05:33:52.616Z,65.10
2022-08-24T05:36:27.276Z,65.20
2022-08-24T05:38:56.780Z,65.50
2022-08-24T05:41:24.393Z,65.10
2022-08-24T05:44:01.035Z,65.10
2022-08-24T05:46:33.464Z,65.20
2022-08-24T05:49:01.137Z,65.30
2022-08-24T05:51:33.025Z,65.50
2022-08-24T05:54:09.264Z,65.50
2022-08-24T05:56:47.983Z,65.60
2022-08-24T05:59:17.394Z,65.70
2022-08-24T06:01:45.453Z,65.80
2022-08-24T06:04:12.731Z,65.80
2022-08-24T06:06:39.478Z,66.00
2022-08-24T06:09:06.617Z,66.20
2022-08-24T06:11:39.124Z,66.20
2022-08-24T06:14:13.755Z,66.60
2022-08-24T06:16:53.134Z,66.70
2022-08-24T06:19:21.308Z,66.50
2022-08-24T06:21:50.652Z,67.50
2022-08-24T06:24:18.697Z,67.10
2022-08-24T06:27:05.207Z,67.10
2022-08-24T06:29:34.319Z,67.00
2022-08-24T06:32:18.620Z,67.20
2022-08-24T06:34:46.681Z,67.20
2022-08-24T06:37:15.135Z,67.30
2022-08-24T06:39:42.173Z,67.40
2022-08-24T06:42:10.946Z,67.50
2022-08-24T06:44:42.865Z,67.70
2022-08-24T06:47:18.634Z,67.80
2022-08-24T06:49:45.832Z,67.80
2022-08-24T06:52:12.798Z,67.70
2022-08-24T06:54:39.667Z,67.60
2022-08-24T06:57:07.566Z,68.00
2022-08-24T06:59:34.387Z,67.00
2022-08-24T07:02:01.260Z,66.70
2022-08-24T07:04:29.296Z,66.30
2022-08-24T07:07:21.855Z,65.90
2022-08-24T07:09:49.012Z,65.70
2022-08-24T07:12:15.747Z,65.50
2022-08-24T07:14:43.112Z,65.30
2022-08-24T07:17:09.902Z,65.00
2022-08-24T07:19:37.798Z,64.60
2022-08-24T07:22:06.221Z,63.90
2022-08-24T07:24:33.746Z,63.30
2022-08-24T07:27:01.340Z,62.50
2022-08-24T07:29:48.455Z,61.90
2022-08-24T07:32:16.296Z,60.80
2022-08-24T07:34:45.088Z,60.20
2022-08-24T07:37:12.218Z,59.40
2022-08-24T07:39:42.835Z,58.70
2022-08-24T07:42:15.896Z,58.20
2022-08-24T07:44:45.920Z,58.00
2022-08-24T07:47:37.119Z,57.70
2022-08-24T07:50:01.721Z,56.80
2022-08-24T07:52:29.628Z,56.40
2022-08-24T07:54:56.604Z,56.10
2022-08-24T07:57:24.224Z,55.80
2022-08-24T07:59:51.251Z,55.40
2022-08-24T08:02:18.303Z,54.70
2022-08-24T08:04:48.698Z,54.30
2022-08-24T08:07:17.397Z,54.10
2022-08-24T08:09:46.826Z,53.50
2022-08-24T08:12:13.529Z,53.10
2022-08-24T08:14:52.601Z,52.50
2022-08-24T08:17:20.138Z,52.10
2022-08-24T08:19:46.922Z,51.70
2022-08-24T08:22:32.883Z,51.60
2022-08-24T08:25:38.264Z,51.40
2022-08-24T08:28:25.291Z,51.40
2022-08-24T08:30:53.749Z,50.70
2022-08-24T08:33:20.931Z,50.20
2022-08-24T08:35:50.178Z,49.60
2022-08-24T08:38:17.231Z,49.20
2022-08-24T08:41:12.843Z,48.70
2022-08-24T08:44:04.300Z,47.90
2022-08-24T08:46:43.498Z,47.60
2022-08-24T08:49:40.876Z,46.40
2022-08-24T08:52:33.461Z,46.30
2022-08-24T08:55:39.973Z,45.70
2022-08-24T08:58:27.318Z,45.50
2022-08-24T09:01:15.187Z,45.50
2022-08-24T09:04:17.769Z,45.80
2022-08-24T09:07:34.665Z,44.20
2022-08-24T09:10:29.121Z,43.50
2022-08-24T09:13:21.882Z,43.10
2022-08-24T09:16:18.212Z,43.00
2022-08-24T09:19:26.116Z,42.50
2022-08-24T09:22:17.839Z,42.30
2022-08-24T09:24:47.419Z,41.90
2022-08-24T09:28:17.184Z,42.30
2022-08-24T09:31:15.754Z,41.70
2022-08-24T09:34:01.955Z,42.60
2022-08-24T09:36:57.297Z,42.10
2022-08-24T09:39:58.793Z,41.30
2022-08-24T09:42:55.888Z,41.40
2022-08-24T09:45:42.807Z,41.50
2022-08-24T09:48:32.178Z,41.20
2022-08-24T09:51:29.840Z,41.10
2022-08-24T09:54:03.109Z,41.40
2022-08-24T09:56:48.620Z,42.10
2022-08-24T09:59:38.109Z,39.90
2022-08-24T10:02:21.681Z,40.70
2022-08-24T10:04:55.489Z,40.40
2022-08-24T10:07:46.277Z,41.00
2022-08-24T10:10:22.038Z,40.60
2022-08-24T10:12:59.751Z,40.00
2022-08-24T10:15:38.271Z,40.30
2022-08-24T10:18:34.723Z,39.70
2022-08-24T10:21:23.087Z,39.30
2022-08-24T10:24:20.823Z,39.50
2022-08-24T10:27:11.209Z,39.40
2022-08-24T10:30:16.013Z,39.70
2022-08-24T10:33:42.924Z,38.90
2022-08-24T10:36:24.780Z,38.90
2022-08-24T10:39:30.877Z,38.90
2022-08-24T10:42:40.394Z,38.10
2022-08-24T10:45:24.965Z,37.80
2022-08-24T10:48:23.115Z,37.70
2022-08-24T10:51:27.476Z,37.00
2022-08-24T10:53:55.138Z,36.60
2022-08-24T10:56:36.037Z,37.00
2022-08-24T10:59:23.746Z,37.70
2022-08-24T11:02:12.748Z,37.20
2022-08-24T11:04:40.476Z,37.00
2022-08-24T11:07:10.284Z,36.90
2022-08-24T11:09:53.084Z,37.60
2022-08-24T11:12:43.794Z,37.70
2022-08-24T11:15:20.478Z,37.70
2022-08-24T11:18:01.865Z,38.60
2022-08-24T11:20:31.068Z,38.70
2022-08-24T11:23:07.883Z,38.30
2022-08-24T11:25:38.461Z,38.40
2022-08-24T11:28:36.492Z,38.40
2022-08-24T11:31:03.548Z,39.30
2022-08-24T11:33:34.189Z,38.80
2022-08-24T11:36:02.432Z,39.00
2022-08-24T11:38:34.319Z,39.30
2022-08-24T11:41:13.195Z,39.50
2022-08-24T11:44:17.528Z,39.70
2022-08-24T11:46:53.371Z,40.50
2022-08-24T11:49:32.755Z,40.10
2022-08-24T11:52:12.862Z,39.90
2022-08-24T11:54:51.765Z,39.70
2022-08-24T11:57:39.176Z,39.70
2022-08-24T12:00:22.756Z,40.00
2022-08-24T12:03:08.316Z,40.00
2022-08-24T12:05:42.473Z,40.70
2022-08-24T12:08:33.015Z,41.10
2022-08-24T12:11:25.710Z,41.80
2022-08-24T12:14:04.796Z,41.80
2022-08-24T12:16:46.212Z,42.10
2022-08-24T12:19:23.741Z,42.00
2022-08-24T12:22:01.979Z,41.70
2022-08-24T12:24:42.983Z,41.20
2022-08-24T12:27:15.640Z,41.10
2022-08-24T12:30:05.555Z,41.10
2022-08-24T12:32:46.332Z,41.30
2022-08-24T12:35:33.901Z,40.90
2022-08-24T12:38:22.806Z,41.80
2022-08-24T12:40:56.340Z,41.80
2022-08-24T12:43:49.196Z,41.60
2022-08-24T12:46:20.540Z,41.70
2022-08-24T12:49:06.373Z,42.10
2022-08-24T12:51:57.906Z,42.20
2022-08-24T12:55:00.655Z,42.20
2022-08-24T12:57:27.291Z,42.20
2022-08-24T13:00:02.299Z,42.90
2022-08-24T13:02:58.727Z,42.60
2022-08-24T13:05:37.573Z,43.30
2022-08-24T13:08:33.247Z,42.90
2022-08-24T13:11:05.993Z,43.10
2022-08-24T13:14:04.408Z,43.00
2022-08-24T13:16:51.292Z,42.80
2022-08-24T13:19:23.714Z,42.80
2022-08-24T13:22:00.863Z,42.80
2022-08-24T13:24:30.570Z,42.80
2022-08-24T13:27:20.353Z,43.00
2022-08-24T13:29:54.600Z,43.90
2022-08-24T13:32:36.491Z,43.50
2022-08-24T13:35:29.145Z,43.30
2022-08-24T13:38:23.868Z,42.90
2022-08-24T13:40:58.947Z,43.10
2022-08-24T13:43:53.853Z,43.10
2022-08-24T13:46:58.447Z,43.80
2022-08-24T13:49:46.268Z,44.10
2022-08-24T13:52:21.674Z,44.10
2022-08-24T13:55:26.151Z,43.70
2022-08-24T13:58:22.724Z,43.40
2022-08-24T14:01:02.415Z,43.90
2022-08-24T14:04:12.544Z,43.40
2022-08-24T14:06:55.942Z,43.70
2022-08-24T14:09:43.535Z,44.10
2022-08-24T14:12:34.754Z,43.30
2022-08-24T14:15:50.321Z,43.20
2022-08-24T14:18:38.250Z,43.50
2022-08-24T14:21:17.946Z,43.50
2022-08-24T14:24:04.230Z,43.20
2022-08-24T14:26:33.685Z,43.50
2022-08-24T14:29:31.327Z,43.20
2022-08-24T14:32:20.941Z,43.30
2022-08-24T14:35:19.901Z,42.80
2022-08-24T14:38:12.335Z,43.10
2022-08-24T14:40:58.603Z,43.20
2022-08-24T14:43:58.056Z,42.70
2022-08-24T14:47:02.388Z,42.80
2022-08-24T14:49:49.926Z,42.60
2022-08-24T14:52:17.695Z,42.80
2022-08-24T14:55:18.746Z,42.80
2022-08-24T14:57:51.506Z,42.80
2022-08-24T15:00:22.899Z,42.60
2022-08-24T15:02:55.811Z,42.60
2022-08-24T15:05:31.556Z,42.60
2022-08-24T15:08:01.243Z,42.70
2022-08-24T15:11:09.470Z,42.60
2022-08-24T15:13:42.969Z,42.60
2022-08-24T15:16:11.694Z,42.40
2022-08-24T15:18:57.787Z,42.40
2022-08-24T15:21:43.251Z,42.30
2022-08-24T15:24:19.596Z,42.70
2022-08-24T15:27:11.826Z,42.80
2022-08-24T15:29:57.823Z,43.20
2022-08-24T15:32:40.255Z,42.60
2022-08-24T15:35:07.180Z,43.20
2022-08-24T15:37:39.992Z,43.20
2022-08-24T15:40:22.118Z,43.50
2022-08-24T15:42:50.983Z,43.10
2022-08-24T15:45:20.523Z,43.10
2022-08-24T15:47:51.910Z,43.00
2022-08-24T15:50:30.407Z,43.00
2022-08-24T15:53:08.912Z,42.60
2022-08-24T15:55:41.961Z,42.80
2022-08-24T15:58:38.537Z,42.90
2022-08-24T16:01:30.097Z,42.70
2022-08-24T16:04:01.901Z,42.80
2022-08-24T16:06:32.038Z,42.90
2022-08-24T16:09:04.311Z,43.00
2022-08-24T16:11:38.235Z,42.70
2022-08-24T16:14:11.782Z,42.70
2022-08-24T16:16:42.482Z,42.70
2022-08-24T16:19:39.824Z,42.70
2022-08-24T16:22:13.140Z,42.70
2022-08-24T16:24:42.027Z,42.40
2022-08-24T16:27:16.503Z,42.60
2022-08-24T16:29:50.962Z,42.50
2022-08-24T16:32:32.536Z,42.80
2022-08-24T16:35:10.879Z,42.80
2022-08-24T16:37:39.169Z,43.00
2022-08-24T16:40:08.380Z,43.10
2022-08-24T16:42:36.344Z,42.70
2022-08-24T16:45:05.821Z,42.70
2022-08-24T16:47:32.562Z,42.70
2022-08-24T16:49:59.242Z,42.90
2022-08-24T16:52:25.956Z,42.80
2022-08-24T16:54:52.612Z,43.00
2022-08-24T16:57:22.855Z,43.20
2022-08-24T16:59:50.759Z,43.60
2022-08-24T17:02:19.501Z,43.30
2022-08-24T17:04:46.309Z,43.30
2022-08-24T17:07:26.954Z,43.70
2022-08-24T17:09:55.416Z,44.30
2022-08-24T17:12:22.811Z,44.50
2022-08-24T17:14:49.553Z,43.90
2022-08-24T17:17:21.335Z,43.60
2022-08-24T17:19:54.034Z,43.50
2022-08-24T17:22:22.769Z,43.70
2022-08-24T17:24:49.661Z,43.50
2022-08-24T17:27:17.959Z,43.40
2022-08-24T17:29:45.676Z,43.50
2022-08-24T17:32:13.174Z,43.60
2022-08-24T17:34:40.810Z,43.90
2022-08-24T17:37:08.266Z,44.20
2022-08-24T17:39:34.945Z,44.30
2022-08-24T17:42:03.446Z,44.40
2022-08-24T17:44:33.414Z,44.10
2022-08-24T17:47:03.617Z,44.30
2022-08-24T17:49:31.345Z,44.30
2022-08-24T17:51:59.188Z,44.60
2022-08-24T17:54:28.214Z,45.10
2022-08-24T17:56:55.622Z,44.50
2022-08-24T17:59:29.696Z,44.80
2022-08-24T18:02:02.120Z,45.40
2022-08-24T18:04:30.863Z,45.30
2022-08-24T18:07:00.954Z,45.60
2022-08-24T18:09:38.494Z,45.40
2022-08-24T18:12:07.197Z,45.10
2022-08-24T18:14:34.939Z,44.90
2022-08-24T18:17:05.359Z,45.30
2022-08-24T18:19:33.883Z,45.60
2022-08-24T18:22:01.773Z,46.00
2022-08-24T18:24:32.448Z,45.90
2022-08-24T18:27:10.248Z,46.00
2022-08-24T18:29:39.541Z,46.50
2022-08-24T18:32:06.690Z,46.70
2022-08-24T18:34:34.193Z,46.40
2022-08-24T18:37:01.449Z,46.60
2022-08-24T18:39:28.655Z,46.40
2022-08-24T18:41:57.336Z,46.80
2022-08-24T18:44:27.212Z,46.80
2022-08-24T18:46:57.823Z,46.70
2022-08-24T18:49:24.578Z,46.80
2022-08-24T18:51:51.651Z,46.70
2022-08-24T18:54:22.365Z,46.90
2022-08-24T18:56:49.729Z,46.90
2022-08-24T18:59:18.648Z,47.30
2022-08-24T19:02:07.125Z,47.20
2022-08-24T19:04:37.530Z,47.40
2022-08-24T19:07:04.265Z,47.80
2022-08-24T19:09:34.394Z,48.00
2022-08-24T19:12:02.841Z,48.00
2022-08-24T19:14:29.838Z,48.00
2022-08-24T19:16:56.570Z,48.40
2022-08-24T19:19:23.305Z,48.40
2022-08-24T19:21:50.405Z,49.10
2022-08-24T19:24:21.063Z,49.40
2022-08-24T19:26:47.802Z,49.80
2022-08-24T19:29:21.406Z,50.20
2022-08-24T19:31:56.566Z,50.00
2022-08-24T19:34:23.338Z,50.40
2022-08-24T19:36:51.331Z,50.80
2022-08-24T19:39:18.401Z,50.10
2022-08-24T19:41:50.362Z,50.00
2022-08-24T19:44:38.638Z,50.70
2022-08-24T19:47:07.133Z,51.00
2022-08-24T19:49:34.310Z,51.30
2022-08-24T19:52:02.452Z,50.80
2022-08-24T19:54:36.680Z,50.90
2022-08-24T19:57:25.240Z,51.10
2022-08-24T19:59:53.225Z,51.00
2022-08-24T20:02:19.955Z,50.50
2022-08-24T20:04:46.705Z,50.30
2022-08-24T20:07:16.797Z,50.60
2022-08-24T20:09:44.280Z,50.70
2022-08-24T20:12:11.554Z,50.50
2022-08-24T20:14:38.264Z,50.90
2022-08-24T20:17:05.423Z,50.60
2022-08-24T20:19:36.958Z,50.60
2022-08-24T20:22:13.294Z,50.60
2022-08-24T20:24:40.616Z,50.50
2022-08-24T20:27:07.337Z,50.50
2022-08-24T20:29:34.051Z,50.50
2022-08-24T20:32:02.484Z,51.20
2022-08-24T20:34:29.546Z,50.70
2022-08-24T20:36:57.310Z,50.50
2022-08-24T20:39:25.680Z,50.50
2022-08-24T20:41:53.627Z,50.50
2022-08-24T20:44:21.227Z,50.50
2022-08-24T20:46:50.054Z,50.50
2022-08-24T20:49:19.496Z,50.50
2022-08-24T20:51:46.294Z,50.60
2022-08-24T20:54:14.610Z,50.60
2022-08-24T20:56:43.913Z,50.60
2022-08-24T20:59:12.753Z,50.60
2022-08-24T21:01:43.623Z,50.60
2022-08-24T21:04:10.491Z,50.60
2022-08-24T21:06:38.940Z,50.60
2022-08-24T21:09:06.157Z,50.70
2022-08-24T21:11:33.384Z,50.80
2022-08-24T21:14:01.583Z,51.00
2022-08-24T21:16:28.501Z,51.00
2022-08-24T21:18:55.182Z,51.00
2022-08-24T21:21:21.848Z,51.00
2022-08-24T21:23:48.693Z,51.30
2022-08-24T21:26:21.308Z,51.30
2022-08-24T21:28:49.432Z,51.40
2022-08-24T21:31:16.713Z,51.40
2022-08-24T21:34:01.908Z,51.50
2022-08-24T21:36:31.764Z,51.60
2022-08-24T21:38:59.463Z,51.60
2022-08-24T21:41:29.197Z,51.60
2022-08-24T21:43:56.395Z,51.80
2022-08-24T21:46:31.344Z,51.80
2022-08-24T21:48:58.840Z,52.00
2022-08-24T21:51:26.258Z,51.90
2022-08-24T21:53:57.464Z,52.00
2022-08-24T21:56:30.332Z,52.00
2022-08-24T21:58:57.211Z,52.10
2022-08-24T22:01:24.035Z,52.00
2022-08-24T22:03:50.760Z,52.00
2022-08-24T22:06:17.398Z,52.00
2022-08-24T22:08:44.191Z,52.10
2022-08-24T22:11:13.605Z,52.10
2022-08-24T22:13:41.020Z,52.20
2022-08-24T22:16:08.387Z,52.30
2022-08-24T22:18:35.536Z,52.30
2022-08-24T22:21:08.095Z,52.30
2022-08-24T22:23:35.388Z,52.50
2022-08-24T22:26:03.130Z,52.50
2022-08-24T22:28:30.104Z,52.50
2022-08-24T22:30:56.840Z,52.50
2022-08-24T22:33:23.776Z,52.60
2022-08-24T22:35:51.648Z,52.60
2022-08-24T22:38:19.662Z,52.60
2022-08-24T22:40:47.063Z,52.60
2022-08-24T22:43:14.046Z,52.60
2022-08-24T22:45:40.718Z,52.50
2022-08-24T22:48:07.356Z,52.90
2022-08-24T22:50:34.072Z,52.60
2022-08-24T22:53:00.781Z,52.60
2022-08-24T22:55:32.371Z,52.60
2022-08-24T22:57:59.108Z,52.70
2022-08-24T23:00:26.806Z,52.60
2022-08-24T23:02:53.440Z,52.60
2022-08-24T23:05:20.189Z,52.50
2022-08-24T23:07:46.869Z,52.60
2022-08-24T23:10:14.845Z,52.50
2022-08-24T23:12:41.536Z,52.50
2022-08-24T23:15:08.752Z,52.50
2022-08-24T23:17:35.488Z,52.60
2022-08-24T23:20:05.678Z,52.70
2022-08-24T23:22:36.481Z,52.60
2022-08-24T23:25:04.399Z,52.80
2022-08-24T23:27:32.898Z,52.70
2022-08-24T23:30:07.041Z,52.70
2022-08-24T23:32:33.742Z,52.80
2022-08-24T23:35:00.576Z,52.80
2022-08-24T23:37:27.679Z,52.80
2022-08-24T23:39:54.418Z,52.90
2022-08-24T23:42:21.187Z,52.90
2022-08-24T23:44:47.850Z,52.90
2022-08-24T23:47:14.768Z,53.00
2022-08-24T23:49:41.663Z,53.10
2022-08-24T23:52:08.887Z,53.10
2022-08-24T23:54:52.962Z,53.10
2022-08-24T23:57:19.634Z,53.10
2022-08-24T23:59:46.287Z,53.10
